Hull, Texas
Current Conditions -  °F | °C
As of 3:15 PM on Saturday 22 Nov 2014 (Local Time) from KBMT Reporting Station
Overcast Overcast  
Wind Chill: 68°   Ceiling: 1500
Heat Index: 68°   Visibility: 10mi
Dew Point: 63°   Wind: 12mph
Humidity: 84%   Direction: 120°ESE
Pressure: 29.91"   Gusts: NA
Location:  30.15°N, 94.64°W
Report Text: KBMT 222115Z AUTO 12010KT 10SM OVC015 20/17 A2991 RMK AO2 LTG DSNT NW T01980171
Loading
Personal Weather Stations






























Interactive Weather Map New forecast layout! Learn more

10-Day Weather Forecast

Advertisements
Track Severe Weather on mobile